Архив погоды в Чанах

Метеограмма Чаны
Понедельник, 24 Июня
Время местн. Темп Ветер Видим Явления Облачность нижн/средн/верх Атм. давл. Влжн Точка росы ВНГО R Сост. почвы Tg s
Напр Скр Прв ур.ст ур.м изм
19:00 +23.1° З 1 - 50 км - переменная облачность 749 759 +0.2 34% +6.5° 1.5 км 0 - - -
16:00 +22° С-З 2 - 50 км - переменная облачность 749 759 -0.2 39% +7.5° 1.5 км - - - -
13:00 +19.4° З 2 - 50 км - переменная облачность 749 759 -0.5 47% +7.9° 1 км - - - -
10:00 +17.5° З 1 - 50 км - ясно 750 759 +0.2 61% +9.9° более 2.5 км - - - -
07:00 +11.7° З 1 - 50 км - ясно 749 759 +0.1 89% +10° более 2.5 км 0 Влажная (без луж) - -
04:00 +10° З 2 - 50 км - ясно 749 759 -0.3 92% +8.8° более 2.5 км - - - -
01:00 +11.5° З 2 - 50 км - ясно 750 760 -0.2 87% +9.4° более 2.5 км - - - -
Воскресенье, 23 Июня
Время местн. Темп Ветер Видим Явления Облачность нижн/средн/верх Атм. давл. Влжн Точка росы ВНГО R Сост. почвы Tg s
Напр Скр Прв ур.ст ур.м изм
22:00 +15° З,С-З 2 - 50 км - переменная облачность 750 760 +0.1 72% +9.9° 1 км - - - -
19:00 +17.3° З,С-З 3 - 50 км - переменная облачность 750 760 0 49% +6.5° 1.5 км 0 - - -
16:00 +16.9° С 3 - 50 км - переменная облачность 750 760 -0.1 42% +3.8° 1.5 км - - - -
13:00 +14.1° З,С-З 4 - 50 км - облачно с прояснениями 750 760 +0.2 55% +5.1° 1 км - - - -
10:00 +10.4° З 3 - 50 км - облачно с прояснениями 750 760 +0.4 72% +5.5° 1 км - - - -
07:00 +7.1° З 2 - 50 км - переменная облачность 749 759 +0.5 93% +6.1° 1 км 0 Влажная (без луж) - -
04:00 +5.9° З 3 - 50 км - переменная облачность 749 759 -0.5 93% +4.8° 1 км - - - -
01:00 +7.5° З 3 - 50 км - ясно 749 759 +0.5 84% +5° более 2.5 км - - - -
Суббота, 22 Июня
Время местн. Темп Ветер Видим Явления Облачность нижн/средн/верх Атм. давл. Влжн Точка росы ВНГО R Сост. почвы Tg s
Напр Скр Прв ур.ст ур.м изм
22:00 +12° З,С-З 6 - 50 км - переменная облачность 749 759 +1 58% +3.9° - - - - -
19:00 +15.8° С-З 6 - 50 км небо без изменений {ливневые осадки} преимущественно облачно 748 758 +1 48% +4.9° 1 км 4 - - -
16:00 +17.9° З,С-З 8 10 50 км небо без изменений {ливневые осадки} переменная облачность 747 757 +0.5 61% +10.3° 1 км - - - -
13:00 +18.3° З 4 - 50 км небо без изменений {ливневые осадки} облачно с прояснениями 746 756 +0.3 69% +12.5° 1 км - - - -
10:00 +16.1° З 5 - 50 км небо без изменений {ливневые осадки} облачно 746 756 -0.1 86% +13.8° 1 км - - - -
07:00 +14° С-З 2 - 50 км ливневый дождь облачно 746 756 -0.3 90% +12.4° 600 м 0.3 Влажная (без луж) - -
04:00 +15° В,С-В 2 - 50 км - облачно 746 756 -1.2 81% +11.7° 1 км - - - -
01:00 +16° С 3 - 50 км - облачно с прояснениями 748 757 +0.3 72% +10.9° 1 км - - - -
Пятница, 21 Июня
Время местн. Темп Ветер Видим Явления Облачность нижн/средн/верх Атм. давл. Влжн Точка росы ВНГО R Сост. почвы Tg s
Напр Скр Прв ур.ст ур.м изм
22:00 +21.4° Ю 2 - 50 км - облачно с прояснениями 747 757 -0.7 42% +8.1° 1 км - - - -
19:00 +25.3° Ю,Ю-З 5 - 50 км - переменная облачность 748 758 -1.4 30% +6.5° 1 км 0 - - -
16:00 +24.8° Ю-З 5 - 50 км - переменная облачность 749 759 -1.1 31% +6.5° 1 км - - - -